首页
METAR-TAF:

METAR-TAF

机场 :

莫比尔, 阿拉巴马州, 美国

纬度: 30-41-18N, 经度: 088-14-44W, 海拔: 66米

当前天气观测

该预报发布于1小时和0分钟前的05:56 UTC
风速3节,风向北转东北
温度 6°C
湿度 87%
气压 1023 hPa
能見度: 16.1公里
天空无云

METAR: KMOB 240556Z AUTO 03003KT 10SM CLR 06/04 A3020 RMK AO2 SLP225 T00560039 10117 20044 401890044 58011 $

时间: 00:56 (06:56 UTC)

预报

该预报发布于1小时和25分钟前的05:31 UTC
预报有效从24日的 06点(UTC)到 25日的 06点(UTC)
风速4节,风向北转东北
能見度: 10公里
天空无云
从 24日的 1300点(UTC)
风速5节,风向东转东北
能見度: 10公里
天空无云
从 24日的 1700点(UTC)
风速8节,风向东南
能見度: 10公里
少量云层高于2500英尺

TAF: KMOB 240531Z 2406/2506 02004KT P6SM SKC FM241300 07005KT P6SM SKC FM241700 13008KT P6SM FEW025

超过4000个机场的气象观测和天气预报(METAR&TAF报告)。

可查询的气象台以黄色和红色小点在地图上表示。

将鼠标移到小点上方,可查看气象台名称。

然后点击查看天气观测和预报。

如需切换地图:点击带黑十字的绿色按钮放大地图;点击带横线的绿色按钮缩小地图;或者点击绿色箭头查看邻近地区的地图。


METAR-TAF: